createdAt,value
2019-05-15T18:36:28.431Z,28.50
2019-05-15T18:38:58.868Z,28.90
2019-05-15T18:41:29.654Z,28.90
2019-05-15T18:44:00.175Z,29.20
2019-05-15T18:46:30.681Z,29.00
2019-05-15T18:49:01.461Z,29.40
2019-05-15T18:51:32.070Z,29.60
2019-05-15T18:54:02.563Z,29.40
2019-05-15T18:56:33.130Z,29.60
2019-05-15T18:59:03.660Z,30.00
2019-05-15T19:01:34.258Z,30.60
2019-05-15T19:04:05.082Z,30.50
2019-05-15T19:06:38.343Z,31.00
2019-05-15T19:09:08.921Z,30.90
2019-05-15T19:11:39.340Z,31.30
2019-05-15T19:14:10.494Z,31.40
2019-05-15T19:16:41.542Z,32.20
2019-05-15T19:19:12.223Z,33.00
2019-05-15T19:21:42.860Z,33.60
2019-05-15T19:24:14.331Z,34.10
2019-05-15T19:26:45.491Z,34.20
2019-05-15T19:29:17.967Z,34.80
2019-05-15T19:31:48.763Z,35.40
2019-05-15T19:34:19.366Z,35.80
2019-05-15T19:36:50.319Z,35.30
2019-05-15T19:39:21.053Z,36.00
2019-05-15T19:41:51.534Z,36.60
2019-05-15T19:44:22.430Z,36.00
2019-05-15T19:46:53.120Z,36.80
2019-05-15T19:49:24.607Z,36.20
2019-05-15T19:51:55.098Z,35.20
2019-05-15T19:54:25.719Z,35.80
2019-05-15T19:56:58.472Z,36.30
2019-05-15T19:59:29.475Z,36.40
2019-05-15T20:02:00.655Z,36.70
2019-05-15T20:04:31.061Z,36.20
2019-05-15T20:07:01.747Z,37.00
2019-05-15T20:09:32.214Z,37.80
2019-05-15T20:12:02.799Z,38.20
2019-05-15T20:14:33.226Z,39.10
2019-05-15T20:17:04.031Z,39.00
2019-05-15T20:19:34.516Z,39.20
2019-05-15T20:22:05.008Z,39.70
2019-05-15T20:24:37.974Z,40.60
2019-05-15T20:27:08.520Z,41.00
2019-05-15T20:29:39.271Z,42.40
2019-05-15T20:32:09.941Z,44.20
2019-05-15T20:34:41.750Z,44.50
2019-05-15T20:37:12.346Z,45.10
2019-05-15T20:39:42.954Z,46.00
2019-05-15T20:42:13.363Z,47.00
2019-05-15T20:44:44.251Z,46.80
2019-05-15T20:47:14.775Z,48.10
2019-05-15T20:49:45.238Z,48.00
2019-05-15T20:52:18.307Z,46.60
2019-05-15T20:54:48.101Z,45.50
2019-05-15T20:57:18.562Z,45.90
2019-05-15T20:59:49.150Z,46.20
2019-05-15T21:02:19.543Z,47.20
2019-05-15T21:04:50.053Z,46.50
2019-05-15T21:07:34.856Z,45.90
2019-05-15T21:09:52.644Z,47.60
2019-05-15T21:12:26.257Z,47.40
2019-05-15T21:14:58.006Z,48.00
2019-05-15T21:17:28.327Z,47.80
2019-05-15T21:20:01.148Z,47.30
2019-05-15T21:22:31.184Z,47.20
2019-05-15T21:25:01.575Z,48.00
2019-05-15T21:27:33.223Z,47.90
2019-05-15T21:30:05.021Z,47.80
2019-05-15T21:32:35.431Z,49.00
2019-05-15T21:35:08.769Z,49.30
2019-05-15T21:37:39.234Z,49.20
2019-05-15T21:40:10.340Z,50.20
2019-05-15T21:42:41.815Z,49.50
2019-05-15T21:45:14.533Z,49.80
2019-05-15T21:47:45.315Z,49.60
2019-05-15T21:50:19.053Z,49.70
2019-05-15T21:52:49.687Z,49.70
2019-05-15T21:55:20.254Z,49.60
2019-05-15T21:57:51.015Z,49.60
2019-05-15T22:00:31.046Z,49.70
2019-05-15T22:03:01.496Z,49.20
2019-05-15T22:05:32.704Z,48.90
2019-05-15T22:08:03.452Z,49.50
2019-05-15T22:10:34.726Z,48.80
2019-05-15T22:13:06.010Z,48.90
2019-05-15T22:15:37.394Z,48.50
2019-05-15T22:18:10.759Z,49.30
2019-05-15T22:20:40.115Z,48.80
2019-05-15T22:23:10.683Z,48.70
2019-05-15T22:25:42.630Z,48.80
2019-05-15T22:28:13.151Z,49.00
2019-05-15T22:30:43.686Z,49.30
2019-05-15T22:33:14.216Z,49.60
2019-05-15T22:35:44.790Z,50.10
2019-05-15T22:38:15.375Z,50.90
2019-05-15T22:40:48.523Z,51.40
2019-05-15T22:43:19.073Z,52.40
2019-05-15T22:45:49.479Z,53.10
2019-05-15T22:48:19.944Z,54.30
2019-05-15T22:50:50.457Z,54.70
2019-05-15T22:53:20.902Z,54.20
2019-05-15T22:55:52.007Z,55.10
2019-05-15T22:58:22.452Z,55.80
2019-05-15T23:00:52.928Z,55.70
2019-05-15T23:03:23.514Z,56.30
2019-05-15T23:05:54.838Z,56.50
2019-05-15T23:08:25.338Z,56.70
2019-05-15T23:10:58.545Z,57.00
2019-05-15T23:13:28.620Z,57.20
2019-05-15T23:15:59.351Z,57.30
2019-05-15T23:18:29.808Z,57.90
2019-05-15T23:21:00.274Z,58.10
2019-05-15T23:23:31.212Z,58.20
2019-05-15T23:26:01.935Z,58.30
2019-05-15T23:28:32.416Z,58.40
2019-05-15T23:31:03.529Z,57.80
2019-05-15T23:33:34.092Z,57.90
2019-05-15T23:36:04.819Z,59.00
2019-05-15T23:38:38.329Z,59.00
2019-05-15T23:41:08.427Z,59.10
2019-05-15T23:43:39.075Z,59.10
2019-05-15T23:46:09.620Z,58.80
2019-05-15T23:48:40.079Z,58.20
2019-05-15T23:51:10.515Z,59.10
2019-05-15T23:53:41.373Z,58.40
2019-05-15T23:56:11.763Z,59.10
2019-05-15T23:58:42.819Z,59.30
